Station: Beaudesert Aws  

  Atmospheric Gas Attenuation - ITU Rec 676-11   ----------------- dB/100km -----------------
Date Time Temp RH % AH g/m3 Dew Point Wind Direction Speed kph Gust kph Barometer mB Rainfall Since 9am 24GHz 47GHz 76GHz 122GHz 134GHz 241GHz
08/05 12:30 21.6 20 3.79 -2.3 4 9 1018.2 0 9.2 17.5 20.4 52.7 37.0 123.7
08/05 12:20 21.3 17 3.17 -4.7 6 7 1018.5 0 7.9 16.8 18.7 48.0 31.1 102.7
08/05 12:10 21.9 18 3.47 -3.5 9 11 1018.7 0 8.5 17.0 19.4 50.0 33.8 112.3
08/05 12:00 21.2 19 3.52 -3.3 6 9 1019.1 0 8.6 17.2 19.8 50.9 34.5 115.0
08/05 11:50 20.8 18 3.26 -4.4 4 7 1019.2 0 8.1 17.0 19.1 49.0 32.2 106.5
08/05 11:40 20.6 22 3.94 -1.9 6 9 1019.2 0 9.5 17.9 21.2 54.6 39.0 130.6
08/05 11:30 20.6 23 4.12 -1.2 2 11 1019.4 0 9.9 18.1 21.7 56.1 40.8 137.1
08/05 11:20 19.8 20 3.42 -3.8 0 0 1019.8 0 8.5 17.4 19.8 50.9 34.2 113.4
08/05 11:10 19.7 21 3.57 -3.3 9 11 1019.9 0 8.8 17.6 20.3 52.2 35.7 118.9
08/05 11:00 19.7 21 3.57 -3.2 7 17 1020 0 8.8 17.6 20.3 52.2 35.7 118.9
08/05 10:50 19.1 20 3.28 -4.4 6 9 1020.1 0 8.2 17.3 19.5 50.3 33.0 109.5
08/05 10:40 19.3 19 3.15 -4.9 7 11 1020.3 0 7.9 17.2 19.1 49.1 31.7 104.7
08/05 10:30 18.9 20 3.24 -4.5 7 15 1020.4 0 8.1 17.3 19.5 50.1 32.7 108.3
08/05 10:20 18.4 21 3.3 -4.3 11 15 1020.5 0 8.3 17.5 19.8 50.9 33.5 111.1
08/05 10:10 18.1 22 3.4 -4 11 15 1020.6 0 8.5 17.7 20.2 51.9 34.7 115.1
08/05 10:00 18.1 23 3.55 -3.3 9 17 1020.6 0 8.8 17.9 20.6 53.1 36.2 120.5
08/05 09:50 17.5 23 3.43 -3.9 11 13 1020.8 0 8.5 17.9 20.4 52.5 35.2 117.0
08/05 09:40 17.4 23 3.41 -4 13 17 1020.8 0 8.5 17.8 20.4 52.4 35.1 116.5
08/05 09:30 17.5 25 3.73 -2.7 9 17 1020.9 0 9.2 18.2 21.3 55.0 38.4 128.0
08/05 09:20 16.8 24 3.43 -3.9 13 19 1020.7 0 8.6 18.0 20.6 53.0 35.5 118.0
08/05 09:10 16.5 25 3.51 -3.6 9 13 1020.9 0 8.7 18.1 20.9 53.8 36.5 121.4
08/05 09:00 16.3 28 3.88 -2.2 7 15 1020.9 0 9.5 18.7 22.1 57.1 40.5 135.4
08/05 08:50 15.7 31 4.15 -1.4 7 11 1021.1 0 10.1 19.1 23.2 59.9 43.7 146.7
08/05 08:40 15.4 32 4.2 -1.2 9 9 1021.1 0 10.2 19.3 23.4 60.6 44.4 149.2
08/05 08:30 14.8 32 4.05 -1.7 11 17 1021 0 9.9 19.2 23.1 59.7 43.1 144.4
08/05 08:20 14.3 36 4.42 -0.6 7 9 1020.9 0 10.7 19.8 24.5 63.3 47.5 159.7
08/05 08:10 14.2 39 4.76 0.4 6 7 1020.9 0 11.4 20.3 25.6 66.5 51.4 173.4
08/05 08:00 13.4 38 4.42 -0.6 9 13 1020.7 0 10.7 20.0 24.7 64.0 48.0 161.5
08/05 07:50 12.9 37 4.17 -1.5 9 13 1020.7 0 10.2 19.7 24.0 62.1 45.5 152.5
08/05 07:40 12.2 41 4.42 -0.7 11 15 1020.7 0 10.8 20.2 25.1 65.0 48.7 163.8
08/05 07:30 10.3 60 5.75 2.9 4 6 1020.6 0 13.7 22.6 30.5 79.5 66.0 224.3
08/05 07:20 9.7 58 5.35 1.8 4 4 1020.6 0 12.8 22.2 29.3 76.1 61.5 208.5
08/05 07:10 9.1 60 5.33 1.7 4 7 1020.4 0 12.8 22.3 29.4 76.5 61.7 209.2
08/05 07:00 8.2 59 4.94 0.7 0 2 1020.6 0 12.0 21.9 28.3 73.4 57.6 194.5
08/05 06:50 7.6 66 5.32 1.8 0 0 1020.6 0 12.8 22.6 29.9 77.8 62.8 212.7
08/05 06:40 8.8 61 5.31 1.7 0 0 1020.4 0 12.8 22.3 29.4 76.6 61.7 209.1
08/05 06:30 7.4 69 5.49 2.1 0 0 1020.2 0 13.2 22.9 30.6 79.8 65.1 220.8
08/05 06:20 8.9 58 5.08 1.1 0 0 1020.1 0 12.3 21.9 28.5 74.1 58.8 198.7
08/05 06:10 8.7 59 5.1 1.3 0 0 1019.9 0 12.3 22.0 28.6 74.5 59.1 200.1
08/05 06:00 9.5 53 4.83 0.4 0 2 1019.6 0 11.7 21.4 27.4 71.1 55.2 186.5
08/05 05:50 9.4 55 4.98 0.8 2 4 1019.6 0 12.0 21.6 27.9 72.6 57.1 193.1
08/05 05:40 10.1 50 4.73 0.1 4 4 1019.5 0 11.5 21.1 26.8 69.6 53.6 180.9
08/05 05:30 10.3 51 4.89 0.6 4 7 1019.4 0 11.8 21.3 27.3 70.9 55.4 187.1
08/05 05:20 11 50 5.01 1 6 7 1019.2 0 12.1 21.3 27.5 71.5 56.3 190.5
08/05 05:10 11.1 50 5.04 1 6 9 1019.1 0 12.1 21.3 27.6 71.7 56.6 191.5
08/05 05:00 11 52 5.21 1.5 6 13 1018.9 0 12.5 21.6 28.2 73.4 58.7 198.9
08/05 04:50 10.9 54 5.37 1.9 6 7 1018.8 0 12.8 21.8 28.8 75.0 60.7 205.9
08/05 04:40 10.9 58 5.77 2.9 0 0 1018.7 0 13.7 22.4 30.3 79.0 65.6 223.1
08/05 04:30 11.6 54 5.61 2.6 4 9 1018.6 0 13.3 22.0 29.5 76.7 63.1 214.3
08/05 04:20 11.6 54 5.61 2.6 7 9 1018.4 0 13.3 22.0 29.4 76.7 63.1 214.3
08/05 04:10 12.5 52 5.72 2.9 7 11 1018.3 0 13.5 22.0 29.5 76.9 63.7 216.5
08/05 04:00 12.4 53 5.79 3.1 7 15 1018.2 0 13.7 22.1 29.8 77.7 64.6 219.8
08/05 03:50 11.5 58 5.99 3.7 9 13 1018.3 0 14.1 22.6 30.9 80.6 67.8 230.9
08/05 03:40 11.6 59 6.13 3.8 4 6 1018.1 0 14.4 22.8 31.4 81.8 69.4 236.7
08/05 03:30 12.1 57 6.11 3.9 6 11 1017.9 0 14.4 22.6 31.1 81.1 68.7 234.3
08/05 03:20 11.5 61 6.3 4.4 4 4 1018.1 0 14.8 23.1 32.1 83.7 71.7 244.4
08/05 03:10 11.6 63 6.55 4.8 7 7 1017.8 0 15.3 23.4 33.0 86.1 74.7 255.0
08/05 03:00 11.8 63 6.63 5 9 15 1017.9 0 15.5 23.5 33.2 86.7 75.5 258.0
08/05 02:50 12.3 63 6.84 5.4 6 7 1017.9 0 15.9 23.7 33.8 88.3 77.7 265.6
08/05 02:40 12.8 60 6.72 5.4 9 13 1017.8 0 15.6 23.4 33.1 86.5 75.7 258.7
08/05 02:30 12.9 61 6.88 5.6 6 9 1017.9 0 16.0 23.6 33.7 88.0 77.6 265.4
08/05 02:20 12.9 60 6.76 5.5 6 7 1017.8 0 15.7 23.4 33.2 86.8 76.1 260.1
08/05 02:10 12.9 63 7.1 6 7 13 1017.7 0 16.4 23.9 34.5 90.3 80.4 275.1
08/05 02:00 12.5 64 7.04 5.9 0 2 1017.8 0 16.3 23.9 34.5 90.1 80.0 273.8
08/05 01:50 12.8 63 7.06 5.9 4 4 1017.9 0 16.3 23.9 34.4 90.0 80.0 273.7
08/05 01:40 12.3 66 7.17 6.1 0 0 1017.9 0 16.6 24.2 35.1 91.7 81.9 280.4
08/05 01:30 12.3 64 6.95 5.7 0 0 1017.9 0 16.1 23.9 34.2 89.4 79.1 270.5
08/05 01:20 12.7 63 7.01 5.8 0 0 1018 0 16.2 23.9 34.3 89.6 79.4 271.9
08/05 01:10 12.7 62 6.9 5.6 6 7 1017.8 0 16.0 23.7 33.8 88.4 78.0 266.9
08/05 01:00 12.6 63 6.97 5.8 4 11 1018 0 16.2 23.8 34.2 89.3 79.0 270.4
08/05 00:50 13 61 6.92 5.6 9 11 1017.8 0 16.0 23.6 33.8 88.3 78.0 266.8
08/05 00:40 13.4 59 6.86 5.5 6 7 1018 0 15.9 23.4 33.4 87.3 76.9 262.9
08/05 00:30 13.4 60 6.98 5.8 11 15 1017.9 0 16.2 23.6 33.8 88.5 78.3 268.1
08/05 00:20 12.8 62 6.95 5.7 9 11 1018.1 0 16.1 23.7 34.0 88.9 78.6 268.9
08/05 00:10 12.9 60 6.76 5.5 11 13 1018 0 15.7 23.4 33.2 86.8 76.1 260.2
08/05 00:00 13.3 59 6.82 5.5 7 13 1017.9 0 15.8 23.4 33.3 87.0 76.4 261.5
07/05 23:50 13.6 58 6.83 5.5 7 9 1018 0 15.8 23.3 33.2 86.8 76.3 260.9
07/05 23:40 13.7 57 6.75 5.3 7 9 1018 0 15.6 23.2 32.9 85.9 75.2 257.1
07/05 23:30 13.4 61 7.09 6 2 6 1018.4 0 16.4 23.8 34.3 89.7 79.8 273.1
07/05 23:20 14 57 6.88 5.6 0 0 1018.1 0 15.9 23.3 33.2 86.8 76.5 261.8
07/05 23:10 14.1 57 6.92 5.7 0 0 1018.3 0 16.0 23.4 33.3 87.2 76.9 263.3
07/05 23:00 14.1 58 7.04 6 2 6 1018 0 16.2 23.5 33.8 88.3 78.4 268.4
07/05 22:50 13.7 58 6.87 5.6 6 6 1018 0 15.9 23.4 33.3 87.1 76.7 262.3
07/05 22:40 14.3 56 6.88 5.6 6 7 1018.1 0 15.9 23.2 33.1 86.5 76.2 260.8
07/05 22:30 15.7 50 6.69 5.3 7 11 1017.9 0 15.4 22.6 31.8 83.1 72.6 248.3
07/05 22:20 16 48 6.54 5 4 7 1018.1 0 15.1 22.3 31.2 81.4 70.5 241.1
07/05 22:10 16.4 46 6.42 4.7 4 4 1017.9 0 14.8 22.0 30.6 79.8 68.8 234.9
07/05 22:00 16.5 46 6.46 4.9 9 13 1017.8 0 14.9 22.1 30.7 80.1 69.1 236.2
07/05 21:50 17.5 44 6.56 5.1 13 15 1017.6 0 15.1 22.0 30.7 80.1 69.4 237.4
07/05 21:40 16.1 48 6.58 5.1 9 9 1017.6 0 15.2 22.3 31.3 81.6 70.9 242.4
07/05 21:30 16.6 46 6.5 4.9 6 7 1017.5 0 15.0 22.1 30.8 80.4 69.5 237.5
07/05 21:20 16.6 47 6.64 5.2 6 6 1017.5 0 15.3 22.3 31.3 81.7 71.2 243.3
07/05 21:10 16.1 48 6.58 5.1 6 7 1017.4 0 15.2 22.3 31.3 81.6 70.9 242.3
07/05 21:00 16.8 46 6.58 5.1 7 13 1017.1 0 15.2 22.1 31.0 80.9 70.3 240.2
07/05 20:50 17 46 6.66 5.3 7 7 1017.1 0 15.3 22.2 31.2 81.5 71.0 242.9
07/05 20:40 18.2 42 6.53 5.1 9 11 1016.9 0 15.0 21.7 30.3 79.0 68.5 234.0
07/05 20:30 16.5 48 6.74 5.5 0 2 1016.7 0 15.5 22.4 31.7 82.7 72.4 247.6
07/05 20:20 18.1 42 6.49 5 2 4 1016.5 0 14.9 21.7 30.2 78.7 68.0 232.6
07/05 20:10 16.3 48 6.66 5.5 6 6 1016.4 0 15.4 22.4 31.4 82.1 71.6 244.9
07/05 20:00 17.4 45 6.67 5.4 4 7 1016.1 0 15.3 22.1 31.0 81.1 70.7 241.9

Last Refresh: 08-May-2026 12:07:27

Bureau of Meteorology